Time;durP1;ratioP1;P1;durP2;ratioP2;P2;SDS_P1;SDS_P2;PMS_P1;PMS_P2;Temp;Humidity;BMP_temperature;BMP_pressure;BME280_temperature;BME280_humidity;BME280_pressure;Samples;Min_cycle;Max_cycle;Signal;HPM_P1;HPM_P2
2022/11/26 00:01:58;;;;;;;;;;;;;;;;;;5029347;28;20274;-63
2022/11/26 00:04:23;;;;;;;;;;;;;;;;;;5029602;28;19913;-64
2022/11/26 00:06:49;;;;;;;;;;;;;;;;;;5029597;28;20291;-64
2022/11/26 00:09:15;;;;;;;;;;;;;;;;;;5033249;28;19909;-64
2022/11/26 00:11:41;;;;;;;;;;;;;;;;;;5033068;28;20008;-63
2022/11/26 00:14:07;;;;;;;;;;;;;;;;;;5032752;28;19920;-64
2022/11/26 00:16:33;;;;;;;;;;;;;;;;;;5032964;28;19959;-64
2022/11/26 00:18:59;;;;;;;;;;;;;;;;;;5033425;28;19913;-62
2022/11/26 00:21:25;;;;;;;;;;;;;;;;;;5033034;28;19919;-64
2022/11/26 00:23:51;;;;;;;;;;;;;;;;;;5032869;28;19964;-64
2022/11/26 00:26:17;;;;;;;;;;;;;;;;;;5032772;28;20762;-64
2022/11/26 00:28:42;;;;;;;;;;;;;;;;;;5037846;28;19913;-63
2022/11/26 00:31:08;;;;;;;;;;;;;;;;;;5032537;28;19932;-63
2022/11/26 00:33:34;;;;;;;;;;;;;;;;;;5033420;28;19932;-64
2022/11/26 00:36:00;;;;;;;;;;;;;;;;;;5032669;28;19920;-64
2022/11/26 00:38:26;;;;;;;;;;;;;;;;;;5032627;28;19963;-64
2022/11/26 00:40:52;;;;;;;;;;;;;;;;;;5032124;28;20369;-63
2022/11/26 00:43:18;;;;;;;;;;;;;;;;;;5032617;28;19913;-64
2022/11/26 00:45:44;;;;;;;;;;;;;;;;;;5032720;28;20377;-63
2022/11/26 00:48:10;;;;;;;;;;;;;;;;;;5032368;28;19932;-63
2022/11/26 00:50:36;;;;;;;;;;;;;;;;;;5032472;28;20460;-63
2022/11/26 00:53:02;;;;;;;;;;;;;;;;;;5032539;28;19928;-63
2022/11/26 00:55:27;;;;;;;;;;;;;;;;;;5031952;28;19956;-64
2022/11/26 00:57:53;;;;;;;;;;;;;;;;;;5032176;28;19913;-63
2022/11/26 01:00:19;;;;;;;;;;;;;;;;;;5032016;28;19941;-64
2022/11/26 01:02:45;;;;;;;;;;;;;;;;;;5032250;28;19913;-64
2022/11/26 01:05:11;;;;;;;;;;;;;;;;;;5032632;28;20366;-63
2022/11/26 01:07:37;;;;;;;;;;;;;;;;;;5031668;28;20488;-64
2022/11/26 01:10:03;;;;;;;;;;;;;;;;;;5031815;28;19916;-64
2022/11/26 01:12:29;;;;;;;;;;;;;;;;;;5031824;28;19921;-63
2022/11/26 01:14:55;;;;;;;;;;;;;;;;;;5031966;28;19913;-63
2022/11/26 01:17:21;;;;;;;;;;;;;;;;;;5032270;28;19909;-64
2022/11/26 01:19:47;;;;;;;;;;;;;;;;;;5030489;28;19936;-64
2022/11/26 01:22:12;;;;;;;;;;;;;;;;;;5031881;28;20060;-63
2022/11/26 01:24:38;;;;;;;;;;;;;;;;;;5031559;28;19921;-64
2022/11/26 01:27:04;;;;;;;;;;;;;;;;;;5036230;28;19909;-63
2022/11/26 01:29:30;;;;;;;;;;;;;;;;;;5031566;28;20014;-63
2022/11/26 01:31:56;;;;;;;;;;;;;;;;;;5031514;28;19936;-64
2022/11/26 01:34:22;;;;;;;;;;;;;;;;;;5031041;28;19932;-63
2022/11/26 01:36:48;;;;;;;;;;;;;;;;;;5031727;28;19964;-64
2022/11/26 01:39:14;;;;;;;;;;;;;;;;;;5031718;28;19913;-62
2022/11/26 01:41:39;;;;;;;;;;;;;;;;;;5030736;28;19916;-64
2022/11/26 01:44:05;;;;;;;;;;;;;;;;;;5029886;28;19920;-63
2022/11/26 01:46:31;;;;;;;;;;;;;;;;;;5031474;28;19966;-64
2022/11/26 01:48:57;;;;;;;;;;;;;;;;;;5031320;28;19944;-63
2022/11/26 01:51:23;;;;;;;;;;;;;;;;;;5031016;28;19917;-64
2022/11/26 01:53:49;;;;;;;;;;;;;;;;;;5031216;28;19979;-62
2022/11/26 01:56:15;;;;;;;;;;;;;;;;;;5031092;28;19948;-64
2022/11/26 01:58:41;;;;;;;;;;;;;;;;;;5030872;28;19971;-63
2022/11/26 02:01:07;;;;;;;;;;;;;;;;;;5030860;28;19960;-63
2022/11/26 02:03:33;;;;;;;;;;;;;;;;;;5031236;28;19959;-63
2022/11/26 02:05:59;;;;;;;;;;;;;;;;;;5031054;28;20059;-63
2022/11/26 02:08:24;;;;;;;;;;;;;;;;;;5031070;28;20274;-63
2022/11/26 02:10:51;;;;;;;;;;;;;;;;;;5030813;28;19924;-62
2022/11/26 02:13:17;;;;;;;;;;;;;;;;;;5030855;28;19915;-63
2022/11/26 02:15:42;;;;;;;;;;;;;;;;;;5030835;28;19917;-63
2022/11/26 02:18:08;;;;;;;;;;;;;;;;;;5030834;28;19910;-63
2022/11/26 02:20:34;;;;;;;;;;;;;;;;;;5031119;28;19936;-63
2022/11/26 02:23:00;;;;;;;;;;;;;;;;;;5030216;28;19968;-63
2022/11/26 02:25:26;;;;;;;;;;;;;;;;;;5030463;28;19913;-64
2022/11/26 02:27:52;;;;;;;;;;;;;;;;;;5034851;28;19909;-64
2022/11/26 02:30:18;;;;;;;;;;;;;;;;;;5029843;28;20009;-63
2022/11/26 02:32:44;;;;;;;;;;;;;;;;;;5030382;28;20402;-64
2022/11/26 02:35:10;;;;;;;;;;;;;;;;;;5030413;28;19952;-64
2022/11/26 02:37:36;;;;;;;;;;;;;;;;;;5030288;28;20783;-64
2022/11/26 02:40:01;;;;;;;;;;;;;;;;;;5030770;28;19913;-65
2022/11/26 02:42:27;;;;;;;;;;;;;;;;;;5029982;28;20293;-64
2022/11/26 02:44:53;;;;;;;;;;;;;;;;;;5045278;28;19913;-64
2022/11/26 02:47:19;;;;;;;;;;;;;;;;;;5030110;28;19913;-64
2022/11/26 02:49:45;;;;;;;;;;;;;;;;;;5030310;28;20305;-64
2022/11/26 02:52:11;;;;;;;;;;;;;;;;;;5030602;28;19927;-64
2022/11/26 02:54:37;;;;;;;;;;;;;;;;;;5029772;28;19917;-64
2022/11/26 02:57:03;;;;;;;;;;;;;;;;;;5030258;28;19913;-65
2022/11/26 02:59:29;;;;;;;;;;;;;;;;;;5030242;28;19990;-65
2022/11/26 03:01:54;;;;;;;;;;;;;;;;;;5030204;28;19919;-64
2022/11/26 03:04:20;;;;;;;;;;;;;;;;;;5029692;28;19919;-64
2022/11/26 03:06:46;;;;;;;;;;;;;;;;;;5030174;28;19913;-64
2022/11/26 03:09:12;;;;;;;;;;;;;;;;;;5029817;28;19913;-65
2022/11/26 03:11:38;;;;;;;;;;;;;;;;;;5029569;28;19923;-64
2022/11/26 03:14:04;;;;;;;;;;;;;;;;;;5029481;28;19941;-64
2022/11/26 03:16:30;;;;;;;;;;;;;;;;;;5029629;28;19968;-65
2022/11/26 03:18:56;;;;;;;;;;;;;;;;;;5030145;28;19920;-63
2022/11/26 03:21:22;;;;;;;;;;;;;;;;;;5029363;28;19917;-64
2022/11/26 03:23:47;;;;;;;;;;;;;;;;;;5029318;28;19921;-64
2022/11/26 03:26:13;;;;;;;;;;;;;;;;;;5030243;28;20402;-64
2022/11/26 03:28:39;;;;;;;;;;;;;;;;;;5029349;28;20012;-64
2022/11/26 03:31:05;;;;;;;;;;;;;;;;;;5029657;28;20019;-64
2022/11/26 03:33:31;;;;;;;;;;;;;;;;;;5029311;28;20347;-64
2022/11/26 03:35:57;;;;;;;;;;;;;;;;;;5029441;28;19920;-64
2022/11/26 03:38:23;;;;;;;;;;;;;;;;;;5029303;28;20350;-64
2022/11/26 03:40:49;;;;;;;;;;;;;;;;;;5029467;28;19963;-64
2022/11/26 03:43:14;;;;;;;;;;;;;;;;;;5032643;28;20377;-63
2022/11/26 03:45:40;;;;;;;;;;;;;;;;;;5033681;28;19951;-64
2022/11/26 03:48:06;;;;;;;;;;;;;;;;;;5033065;28;19916;-64
2022/11/26 03:50:32;;;;;;;;;;;;;;;;;;5032919;28;19922;-63
2022/11/26 03:52:58;;;;;;;;;;;;;;;;;;5033945;28;20532;-64
2022/11/26 03:55:24;;;;;;;;;;;;;;;;;;5032803;28;19916;-63
2022/11/26 03:57:50;;;;;;;;;;;;;;;;;;5033688;28;20305;-63
2022/11/26 04:00:16;;;;;;;;;;;;;;;;;;5033219;28;20378;-63
2022/11/26 04:02:42;;;;;;;;;;;;;;;;;;5032856;28;19913;-64
2022/11/26 04:05:08;;;;;;;;;;;;;;;;;;5032893;28;19913;-64
2022/11/26 04:07:34;;;;;;;;;;;;;;;;;;5033249;28;20412;-63
2022/11/26 04:10:00;;;;;;;;;;;;;;;;;;5033151;28;19966;-63
2022/11/26 04:12:25;;;;;;;;;;;;;;;;;;5032887;28;19929;-63
2022/11/26 04:14:51;;;;;;;;;;;;;;;;;;5033081;28;19945;-63
2022/11/26 04:17:17;;;;;;;;;;;;;;;;;;5033206;28;20396;-65
2022/11/26 04:19:43;;;;;;;;;;;;;;;;;;5032431;28;19913;-65
2022/11/26 04:22:09;;;;;;;;;;;;;;;;;;5032662;28;19948;-64
2022/11/26 04:24:35;;;;;;;;;;;;;;;;;;5032305;28;20008;-64
2022/11/26 04:27:01;;;;;;;;;;;;;;;;;;5036113;28;20277;-64
2022/11/26 04:29:27;;;;;;;;;;;;;;;;;;5032765;28;20006;-64
2022/11/26 04:31:52;;;;;;;;;;;;;;;;;;5032910;28;20439;-63
2022/11/26 04:34:18;;;;;;;;;;;;;;;;;;5032575;28;19913;-64
2022/11/26 04:36:44;;;;;;;;;;;;;;;;;;5032865;28;19913;-63
2022/11/26 04:39:11;;;;;;;;;;;;;;;;;;5032887;28;19909;-63
2022/11/26 04:41:37;;;;;;;;;;;;;;;;;;5032565;28;19967;-64
2022/11/26 04:44:03;;;;;;;;;;;;;;;;;;5032154;28;19914;-64
2022/11/26 04:46:29;;;;;;;;;;;;;;;;;;5032382;28;20024;-64
2022/11/26 04:48:54;;;;;;;;;;;;;;;;;;5032270;28;19913;-64
2022/11/26 04:51:20;;;;;;;;;;;;;;;;;;5032369;28;20015;-64
2022/11/26 04:53:46;;;;;;;;;;;;;;;;;;5032154;28;20382;-64
2022/11/26 04:56:12;;;;;;;;;;;;;;;;;;5032267;28;19909;-64
2022/11/26 04:58:38;;;;;;;;;;;;;;;;;;5032593;28;19996;-64
2022/11/26 05:01:04;;;;;;;;;;;;;;;;;;5032030;28;19971;-63
2022/11/26 05:03:30;;;;;;;;;;;;;;;;;;5032218;28;19913;-62
2022/11/26 05:05:56;;;;;;;;;;;;;;;;;;5031809;28;19913;-64
2022/11/26 05:08:22;;;;;;;;;;;;;;;;;;5032362;28;19916;-63
2022/11/26 05:10:47;;;;;;;;;;;;;;;;;;5031966;28;19917;-63
2022/11/26 05:13:13;;;;;;;;;;;;;;;;;;5031835;28;19910;-63
2022/11/26 05:15:39;;;;;;;;;;;;;;;;;;5032288;28;19960;-63
2022/11/26 05:18:05;;;;;;;;;;;;;;;;;;5031278;28;19913;-63
2022/11/26 05:20:31;;;;;;;;;;;;;;;;;;5031618;28;19913;-64
2022/11/26 05:22:57;;;;;;;;;;;;;;;;;;5031863;28;19917;-64
2022/11/26 05:25:23;;;;;;;;;;;;;;;;;;5031543;28;20281;-64
2022/11/26 05:27:48;;;;;;;;;;;;;;;;;;5034721;28;20112;-64
2022/11/26 05:30:14;;;;;;;;;;;;;;;;;;5031319;28;20382;-63
2022/11/26 05:32:40;;;;;;;;;;;;;;;;;;5031001;28;19959;-63
2022/11/26 05:35:06;;;;;;;;;;;;;;;;;;5031490;28;20011;-63
2022/11/26 05:37:32;;;;;;;;;;;;;;;;;;5031156;28;19983;-63
2022/11/26 05:39:58;;;;;;;;;;;;;;;;;;5031038;28;19913;-63
2022/11/26 05:42:24;;;;;;;;;;;;;;;;;;5031341;28;19916;-63
2022/11/26 05:44:50;;;;;;;;;;;;;;;;;;5031062;28;19913;-64
2022/11/26 05:47:16;;;;;;;;;;;;;;;;;;5031102;28;19995;-63
2022/11/26 05:49:41;;;;;;;;;;;;;;;;;;5031461;28;19913;-64
2022/11/26 05:52:07;;;;;;;;;;;;;;;;;;5031243;28;19921;-65
2022/11/26 05:54:33;;;;;;;;;;;;;;;;;;5029526;28;20445;-64
2022/11/26 05:56:59;;;;;;;;;;;;;;;;;;5031054;28;20007;-64
2022/11/26 05:59:25;;;;;;;;;;;;;;;;;;5031248;28;19916;-62
2022/11/26 06:01:51;;;;;;;;;;;;;;;;;;5030662;28;19975;-65
2022/11/26 06:04:17;;;;;;;;;;;;;;;;;;5030352;28;20310;-64
2022/11/26 06:06:43;;;;;;;;;;;;;;;;;;5030612;28;19923;-65
2022/11/26 06:09:08;;;;;;;;;;;;;;;;;;5031185;28;19940;-64
2022/11/26 06:11:34;;;;;;;;;;;;;;;;;;5030721;28;19918;-65
2022/11/26 06:14:00;;;;;;;;;;;;;;;;;;5030580;28;19909;-65
2022/11/26 06:16:26;;;;;;;;;;;;;;;;;;5030727;28;20301;-64
2022/11/26 06:18:52;;;;;;;;;;;;;;;;;;5030980;28;20372;-65
2022/11/26 06:21:18;;;;;;;;;;;;;;;;;;5031459;28;19956;-63
2022/11/26 06:23:44;;;;;;;;;;;;;;;;;;5030360;28;19960;-63
2022/11/26 06:26:10;;;;;;;;;;;;;;;;;;5030615;28;19972;-63
2022/11/26 06:28:36;;;;;;;;;;;;;;;;;;5032706;28;19931;-63
2022/11/26 06:31:01;;;;;;;;;;;;;;;;;;5030589;28;19944;-64
2022/11/26 06:33:27;;;;;;;;;;;;;;;;;;5030374;28;19920;-64
2022/11/26 06:35:53;;;;;;;;;;;;;;;;;;5030661;28;20057;-64
2022/11/26 06:38:19;;;;;;;;;;;;;;;;;;5030354;28;20782;-63
2022/11/26 06:40:45;;;;;;;;;;;;;;;;;;5030917;28;19913;-63
2022/11/26 06:43:11;;;;;;;;;;;;;;;;;;5030635;28;20374;-64
2022/11/26 06:45:37;;;;;;;;;;;;;;;;;;5030013;28;19967;-63
2022/11/26 06:48:03;;;;;;;;;;;;;;;;;;5030122;28;20425;-63
2022/11/26 06:50:28;;;;;;;;;;;;;;;;;;5030303;28;19917;-63
2022/11/26 06:52:55;;;;;;;;;;;;;;;;;;5030306;28;19913;-62
2022/11/26 06:55:20;;;;;;;;;;;;;;;;;;5029998;28;19960;-64
2022/11/26 06:57:46;;;;;;;;;;;;;;;;;;5029884;28;20010;-64
2022/11/26 07:00:12;;;;;;;;;;;;;;;;;;5029515;28;19909;-63
2022/11/26 07:02:38;;;;;;;;;;;;;;;;;;5030270;28;19916;-64
2022/11/26 07:05:04;;;;;;;;;;;;;;;;;;5029707;28;19913;-63
2022/11/26 07:07:30;;;;;;;;;;;;;;;;;;5030054;28;19937;-63
2022/11/26 07:09:56;;;;;;;;;;;;;;;;;;5029530;28;19913;-64
2022/11/26 07:12:22;;;;;;;;;;;;;;;;;;5029735;28;19921;-62
2022/11/26 07:14:47;;;;;;;;;;;;;;;;;;5029409;28;19995;-63
2022/11/26 07:17:13;;;;;;;;;;;;;;;;;;5030015;28;19963;-63
2022/11/26 07:19:39;;;;;;;;;;;;;;;;;;5029554;28;19913;-64
2022/11/26 07:22:05;;;;;;;;;;;;;;;;;;5029657;28;19917;-63
2022/11/26 07:24:31;;;;;;;;;;;;;;;;;;5029155;28;19999;-63
2022/11/26 07:26:57;;;;;;;;;;;;;;;;;;5031557;28;20409;-64
2022/11/26 07:29:23;;;;;;;;;;;;;;;;;;5029078;28;19913;-63
2022/11/26 07:31:49;;;;;;;;;;;;;;;;;;5029538;28;19927;-64
2022/11/26 07:34:14;;;;;;;;;;;;;;;;;;5029337;28;19909;-64
2022/11/26 07:36:42;;;;;;;;;;;;;;;;;;5029487;28;20373;-64
2022/11/26 07:39:08;;;;;;;;;;;;;;;;;;5029492;28;19921;-64
2022/11/26 07:41:34;;;;;;;;;;;;;;;;;;5029910;28;19913;-63
2022/11/26 07:43:59;;;;;;;;;;;;;;;;;;5028661;28;19953;-64
2022/11/26 07:46:25;;;;;;;;;;;;;;;;;;5029728;28;19955;-63
2022/11/26 07:48:51;;;;;;;;;;;;;;;;;;5029054;28;19909;-64
2022/11/26 07:51:17;;;;;;;;;;;;;;;;;;5029417;28;19917;-64
2022/11/26 07:53:43;;;;;;;;;;;;;;;;;;5028492;28;19917;-66
2022/11/26 07:56:09;;;;;;;;;;;;;;;;;;5029456;28;19999;-66
2022/11/26 07:58:35;;;;;;;;;;;;;;;;;;5026466;28;19913;-73
2022/11/26 08:01:01;;;;;;;;;;;;;;;;;;5026389;28;19920;-72
2022/11/26 08:03:27;;;;;;;;;;;;;;;;;;5025107;28;20000;-74
2022/11/26 08:05:53;;;;;;;;;;;;;;;;;;5029355;28;19909;-73
2022/11/26 08:08:19;;;;;;;;;;;;;;;;;;5028481;28;19940;-73
2022/11/26 08:10:45;;;;;;;;;;;;;;;;;;5029384;28;20019;-73
2022/11/26 08:13:11;;;;;;;;;;;;;;;;;;5028403;28;20298;-71
2022/11/26 08:15:36;;;;;;;;;;;;;;;;;;5028878;28;20027;-72
2022/11/26 08:18:02;;;;;;;;;;;;;;;;;;5029221;28;19909;-73
2022/11/26 08:20:28;;;;;;;;;;;;;;;;;;5028786;28;19909;-74
2022/11/26 08:22:54;;;;;;;;;;;;;;;;;;5027907;28;19948;-73
2022/11/26 08:25:20;;;;;;;;;;;;;;;;;;5028426;28;20402;-72
2022/11/26 08:27:46;;;;;;;;;;;;;;;;;;5030205;28;19921;-74
2022/11/26 08:30:13;;;;;;;;;;;;;;;;;;5032308;28;20020;-74
2022/11/26 08:32:39;;;;;;;;;;;;;;;;;;5032499;28;20012;-73
2022/11/26 08:35:05;;;;;;;;;;;;;;;;;;5032429;28;19999;-73
2022/11/26 08:37:30;;;;;;;;;;;;;;;;;;5033143;28;19971;-74
2022/11/26 08:39:56;;;;;;;;;;;;;;;;;;5032319;28;20294;-72
2022/11/26 08:42:22;;;;;;;;;;;;;;;;;;5031632;28;19909;-73
2022/11/26 08:44:50;;;;;;;;;;;;;;;;;;5031805;28;19909;-73
2022/11/26 08:47:16;;;;;;;;;;;;;;;;;;5032419;28;20350;-73
2022/11/26 08:49:41;;;;;;;;;;;;;;;;;;5032083;28;19920;-73
2022/11/26 08:52:07;;;;;;;;;;;;;;;;;;5031779;28;19921;-73
2022/11/26 08:54:33;;;;;;;;;;;;;;;;;;5032573;28;19917;-73
2022/11/26 08:56:59;;;;;;;;;;;;;;;;;;5031293;28;20348;-73
2022/11/26 08:59:25;;;;;;;;;;;;;;;;;;5032291;28;19909;-72
2022/11/26 09:01:51;;;;;;;;;;;;;;;;;;5031887;28;19935;-73
2022/11/26 09:04:17;;;;;;;;;;;;;;;;;;5031751;28;19967;-73
2022/11/26 09:06:43;;;;;;;;;;;;;;;;;;5032070;28;19913;-73
2022/11/26 09:09:11;;;;;;;;;;;;;;;;;;5032050;28;19909;-73
2022/11/26 09:11:37;;;;;;;;;;;;;;;;;;5031062;28;19921;-72
2022/11/26 09:14:03;;;;;;;;;;;;;;;;;;5031744;28;19913;-73
2022/11/26 09:16:29;;;;;;;;;;;;;;;;;;5031410;28;19975;-73
2022/11/26 09:18:55;;;;;;;;;;;;;;;;;;5031761;28;19909;-72
2022/11/26 09:21:21;;;;;;;;;;;;;;;;;;5031481;28;20313;-73
2022/11/26 09:23:47;;;;;;;;;;;;;;;;;;5031639;28;19953;-73
2022/11/26 09:26:12;;;;;;;;;;;;;;;;;;5031811;28;19921;-73
2022/11/26 09:28:38;;;;;;;;;;;;;;;;;;5032249;28;20586;-73
2022/11/26 09:31:04;;;;;;;;;;;;;;;;;;5031504;28;19921;-73
2022/11/26 09:33:30;;;;;;;;;;;;;;;;;;5031662;28;20030;-73
2022/11/26 09:35:56;;;;;;;;;;;;;;;;;;5031401;28;19913;-73
2022/11/26 09:38:22;;;;;;;;;;;;;;;;;;5031565;28;19909;-73
2022/11/26 09:40:48;;;;;;;;;;;;;;;;;;5030552;28;20017;-75
2022/11/26 09:43:14;;;;;;;;;;;;;;;;;;5019051;28;20017;-73
2022/11/26 09:45:40;;;;;;;;;;;;;;;;;;5030101;28;20472;-74
2022/11/26 09:48:06;;;;;;;;;;;;;;;;;;5028804;28;19944;-72
2022/11/26 09:50:32;;;;;;;;;;;;;;;;;;5028934;28;19909;-74
2022/11/26 09:52:58;;;;;;;;;;;;;;;;;;5028594;28;20354;-72
2022/11/26 09:55:23;;;;;;;;;;;;;;;;;;5028756;28;19909;-73
2022/11/26 09:57:49;;;;;;;;;;;;;;;;;;5028865;28;20009;-74
2022/11/26 10:00:15;;;;;;;;;;;;;;;;;;5027298;28;19913;-73
2022/11/26 10:02:43;;;;;;;;;;;;;;;;;;5028015;28;20154;-75
2022/11/26 10:05:09;;;;;;;;;;;;;;;;;;5028337;28;19949;-71
2022/11/26 10:07:35;;;;;;;;;;;;;;;;;;5028636;28;20396;-71
2022/11/26 10:10:01;;;;;;;;;;;;;;;;;;5027508;28;20002;-73
2022/11/26 10:12:27;;;;;;;;;;;;;;;;;;5028594;28;19921;-74
2022/11/26 10:14:53;;;;;;;;;;;;;;;;;;5028190;28;19919;-73
2022/11/26 10:17:19;;;;;;;;;;;;;;;;;;5028479;28;20305;-74
2022/11/26 10:19:44;;;;;;;;;;;;;;;;;;5028949;28;19952;-72
2022/11/26 10:22:10;;;;;;;;;;;;;;;;;;5027653;28;20703;-73
2022/11/26 10:24:37;;;;;;;;;;;;;;;;;;5028431;28;19980;-74
2022/11/26 10:27:02;;;;;;;;;;;;;;;;;;5028237;28;20423;-74
2022/11/26 10:29:28;;;;;;;;;;;;;;;;;;5028489;28;19949;-74
2022/11/26 10:31:54;;;;;;;;;;;;;;;;;;5027621;28;19924;-73
2022/11/26 10:34:20;;;;;;;;;;;;;;;;;;5028497;28;19913;-74
2022/11/26 10:36:46;;;;;;;;;;;;;;;;;;5027634;28;19967;-73
2022/11/26 10:39:12;;;;;;;;;;;;;;;;;;5028288;28;20383;-73
2022/11/26 10:41:38;;;;;;;;;;;;;;;;;;5028209;28;20739;-73
2022/11/26 10:44:04;;;;;;;;;;;;;;;;;;5027321;28;19913;-74
2022/11/26 10:46:29;;;;;;;;;;;;;;;;;;5028210;28;20297;-74
2022/11/26 10:48:55;;;;;;;;;;;;;;;;;;5026470;28;19959;-74
2022/11/26 10:51:24;;;;;;;;;;;;;;;;;;5027169;28;19925;-73
2022/11/26 10:53:51;;;;;;;;;;;;;;;;;;5028061;28;19917;-75
2022/11/26 10:56:16;;;;;;;;;;;;;;;;;;5026044;28;19953;-74
2022/11/26 10:58:42;;;;;;;;;;;;;;;;;;5027908;28;20670;-72
2022/11/26 11:01:08;;;;;;;;;;;;;;;;;;5027965;28;19913;-73
2022/11/26 11:03:34;;;;;;;;;;;;;;;;;;5027699;28;20321;-73
2022/11/26 11:06:00;;;;;;;;;;;;;;;;;;5027622;28;20401;-73
2022/11/26 11:08:26;;;;;;;;;;;;;;;;;;5027550;28;20397;-73
2022/11/26 11:10:52;;;;;;;;;;;;;;;;;;5026604;28;19921;-74
2022/11/26 11:13:18;;;;;;;;;;;;;;;;;;5027379;28;20445;-73
2022/11/26 11:15:44;;;;;;;;;;;;;;;;;;5027898;28;19913;-74
2022/11/26 11:18:09;;;;;;;;;;;;;;;;;;5027599;28;19912;-73
2022/11/26 11:20:35;;;;;;;;;;;;;;;;;;5026897;28;20459;-73
2022/11/26 11:23:02;;;;;;;;;;;;;;;;;;5025196;28;20020;-74
2022/11/26 11:25:28;;;;;;;;;;;;;;;;;;5027134;28;20224;-75
2022/11/26 11:27:54;;;;;;;;;;;;;;;;;;5029128;28;20707;-75
2022/11/26 11:30:20;;;;;;;;;;;;;;;;;;5027189;28;19913;-74
2022/11/26 11:32:46;;;;;;;;;;;;;;;;;;5025482;28;20297;-75
2022/11/26 11:35:12;;;;;;;;;;;;;;;;;;5025867;28;20007;-72
2022/11/26 11:37:37;;;;;;;;;;;;;;;;;;5026551;28;20020;-73
2022/11/26 11:40:03;;;;;;;;;;;;;;;;;;5041918;28;20000;-74
2022/11/26 11:42:31;;;;;;;;;;;;;;;;;;5028547;28;19913;-69
2022/11/26 11:44:57;;;;;;;;;;;;;;;;;;5026748;28;19940;-74
2022/11/26 11:47:22;;;;;;;;;;;;;;;;;;5026899;28;19913;-73
2022/11/26 11:49:48;;;;;;;;;;;;;;;;;;5026737;28;19986;-72
2022/11/26 11:52:14;;;;;;;;;;;;;;;;;;5026886;28;19921;-72
2022/11/26 11:54:40;;;;;;;;;;;;;;;;;;5027383;28;19974;-75
2022/11/26 11:57:06;;;;;;;;;;;;;;;;;;5027001;28;20021;-74
2022/11/26 11:59:46;;;;;;;;;;;;;;;;;;5025437;28;20000;-73
2022/11/26 12:02:12;;;;;;;;;;;;;;;;;;5026688;28;20370;-73
2022/11/26 12:04:38;;;;;;;;;;;;;;;;;;5029849;28;19917;-73
2022/11/26 12:07:03;;;;;;;;;;;;;;;;;;5030308;28;19913;-74
2022/11/26 12:09:29;;;;;;;;;;;;;;;;;;5030438;28;20008;-73
2022/11/26 12:11:55;;;;;;;;;;;;;;;;;;5030173;28;19965;-72
2022/11/26 12:14:21;;;;;;;;;;;;;;;;;;5030544;28;19913;-73
2022/11/26 12:16:47;;;;;;;;;;;;;;;;;;5030095;28;20381;-73
2022/11/26 12:19:13;;;;;;;;;;;;;;;;;;5030404;28;19956;-72
2022/11/26 12:21:39;;;;;;;;;;;;;;;;;;5030031;28;20350;-73
2022/11/26 12:24:05;;;;;;;;;;;;;;;;;;5029588;28;19968;-74
2022/11/26 12:26:31;;;;;;;;;;;;;;;;;;5030500;28;19949;-75
2022/11/26 12:28:56;;;;;;;;;;;;;;;;;;5030736;28;19963;-73
2022/11/26 12:31:22;;;;;;;;;;;;;;;;;;5030051;28;19921;-74
2022/11/26 12:33:48;;;;;;;;;;;;;;;;;;5029799;28;19913;-74
2022/11/26 12:36:14;;;;;;;;;;;;;;;;;;5030867;28;19913;-72
2022/11/26 12:38:40;;;;;;;;;;;;;;;;;;5030982;28;20321;-71
2022/11/26 12:41:06;;;;;;;;;;;;;;;;;;5029645;28;20551;-73
2022/11/26 12:43:32;;;;;;;;;;;;;;;;;;5029755;28;19948;-73
2022/11/26 12:45:58;;;;;;;;;;;;;;;;;;5029506;28;19917;-73
2022/11/26 12:48:24;;;;;;;;;;;;;;;;;;5030006;28;19920;-74
2022/11/26 12:50:49;;;;;;;;;;;;;;;;;;5029343;28;19999;-73
2022/11/26 12:53:15;;;;;;;;;;;;;;;;;;5029820;28;19920;-74
2022/11/26 12:55:41;;;;;;;;;;;;;;;;;;5029480;28;19956;-72
2022/11/26 12:58:07;;;;;;;;;;;;;;;;;;5028823;28;20424;-73
2022/11/26 13:00:36;;;;;;;;;;;;;;;;;;5029422;28;19913;-73
2022/11/26 13:03:02;;;;;;;;;;;;;;;;;;5028962;28;20066;-71
2022/11/26 13:05:28;;;;;;;;;;;;;;;;;;5026951;28;19913;-72
2022/11/26 13:07:54;;;;;;;;;;;;;;;;;;5029076;28;19917;-73
2022/11/26 13:10:20;;;;;;;;;;;;;;;;;;5029388;28;19913;-73
2022/11/26 13:12:46;;;;;;;;;;;;;;;;;;5029090;28;20297;-72
2022/11/26 13:15:12;;;;;;;;;;;;;;;;;;5028901;28;20380;-69
2022/11/26 13:17:38;;;;;;;;;;;;;;;;;;5029243;28;19913;-72
2022/11/26 13:20:04;;;;;;;;;;;;;;;;;;5028764;28;19914;-73
2022/11/26 13:22:30;;;;;;;;;;;;;;;;;;5029409;28;19915;-73
2022/11/26 13:24:56;;;;;;;;;;;;;;;;;;5027575;28;19931;-71
2022/11/26 13:27:22;;;;;;;;;;;;;;;;;;5029699;28;19913;-71
2022/11/26 13:29:48;;;;;;;;;;;;;;;;;;5029386;28;19963;-72
2022/11/26 13:32:14;;;;;;;;;;;;;;;;;;5028779;28;19928;-73
2022/11/26 13:34:40;;;;;;;;;;;;;;;;;;5028470;28;19917;-74
2022/11/26 13:37:05;;;;;;;;;;;;;;;;;;5028696;28;19917;-73
2022/11/26 13:39:31;;;;;;;;;;;;;;;;;;5028985;28;19948;-73
2022/11/26 13:41:57;;;;;;;;;;;;;;;;;;5029337;28;19913;-72
2022/11/26 13:44:23;;;;;;;;;;;;;;;;;;5028390;28;19920;-73
2022/11/26 13:46:49;;;;;;;;;;;;;;;;;;5028608;28;19913;-72
2022/11/26 13:49:15;;;;;;;;;;;;;;;;;;5028322;28;20401;-71
2022/11/26 13:51:41;;;;;;;;;;;;;;;;;;5029053;28;19921;-72
2022/11/26 13:54:07;;;;;;;;;;;;;;;;;;5028701;28;19924;-72
2022/11/26 13:56:33;;;;;;;;;;;;;;;;;;5029038;28;19999;-73
2022/11/26 13:58:58;;;;;;;;;;;;;;;;;;5028686;28;19913;-73
2022/11/26 14:01:24;;;;;;;;;;;;;;;;;;5028053;28;19951;-67
2022/11/26 14:03:50;;;;;;;;;;;;;;;;;;5028856;28;19909;-73
2022/11/26 14:06:16;;;;;;;;;;;;;;;;;;5028667;28;20301;-72
2022/11/26 14:08:43;;;;;;;;;;;;;;;;;;5029207;28;19913;-72
2022/11/26 14:11:09;;;;;;;;;;;;;;;;;;5028030;28;20275;-72
2022/11/26 14:13:34;;;;;;;;;;;;;;;;;;5028601;28;19935;-72
2022/11/26 14:16:01;;;;;;;;;;;;;;;;;;5028187;28;19913;-73
2022/11/26 14:18:27;;;;;;;;;;;;;;;;;;5028589;28;19913;-73
2022/11/26 14:20:53;;;;;;;;;;;;;;;;;;5028387;28;19920;-73
2022/11/26 14:23:19;;;;;;;;;;;;;;;;;;5028832;28;20634;-74
2022/11/26 14:25:44;;;;;;;;;;;;;;;;;;5027733;28;20350;-71
2022/11/26 14:28:10;;;;;;;;;;;;;;;;;;5030334;28;19913;-72
2022/11/26 14:30:36;;;;;;;;;;;;;;;;;;5028376;28;20297;-73
2022/11/26 14:33:02;;;;;;;;;;;;;;;;;;5027808;28;20012;-73
2022/11/26 14:35:28;;;;;;;;;;;;;;;;;;5027426;28;20733;-73
2022/11/26 14:37:54;;;;;;;;;;;;;;;;;;5027822;28;19984;-73
2022/11/26 14:40:20;;;;;;;;;;;;;;;;;;5026609;28;19913;-73
2022/11/26 14:42:46;;;;;;;;;;;;;;;;;;5028488;28;19967;-73
2022/11/26 14:45:11;;;;;;;;;;;;;;;;;;5026047;28;20309;-73
2022/11/26 14:47:37;;;;;;;;;;;;;;;;;;5028287;28;20003;-73
2022/11/26 14:50:03;;;;;;;;;;;;;;;;;;5027460;28;20400;-73
2022/11/26 14:52:29;;;;;;;;;;;;;;;;;;5026130;28;19928;-72
2022/11/26 14:54:55;;;;;;;;;;;;;;;;;;5025890;28;19935;-72
2022/11/26 14:57:21;;;;;;;;;;;;;;;;;;5027485;28;19917;-73
2022/11/26 14:59:47;;;;;;;;;;;;;;;;;;5027875;28;19909;-73
2022/11/26 15:02:13;;;;;;;;;;;;;;;;;;5027245;28;19910;-71
2022/11/26 15:04:39;;;;;;;;;;;;;;;;;;5027398;28;19910;-73
2022/11/26 15:07:06;;;;;;;;;;;;;;;;;;5027127;28;19972;-73
2022/11/26 15:09:32;;;;;;;;;;;;;;;;;;5027467;28;19919;-74
2022/11/26 15:11:57;;;;;;;;;;;;;;;;;;5026806;28;19931;-72
2022/11/26 15:14:23;;;;;;;;;;;;;;;;;;5028116;28;19913;-71
2022/11/26 15:16:49;;;;;;;;;;;;;;;;;;5027259;28;19956;-74
2022/11/26 15:19:15;;;;;;;;;;;;;;;;;;5026918;28;19917;-74
2022/11/26 15:21:42;;;;;;;;;;;;;;;;;;5027664;28;20019;-75
2022/11/26 15:24:07;;;;;;;;;;;;;;;;;;5027112;28;19929;-73
2022/11/26 15:26:33;;;;;;;;;;;;;;;;;;5027480;28;20392;-74
2022/11/26 15:28:59;;;;;;;;;;;;;;;;;;5028910;28;19917;-71
2022/11/26 15:31:25;;;;;;;;;;;;;;;;;;5027449;28;20382;-72
2022/11/26 15:33:51;;;;;;;;;;;;;;;;;;5026483;28;19917;-73
2022/11/26 15:36:18;;;;;;;;;;;;;;;;;;5026372;28;20697;-73
2022/11/26 15:38:44;;;;;;;;;;;;;;;;;;5025876;28;19909;-71
2022/11/26 15:41:10;;;;;;;;;;;;;;;;;;5026802;28;19967;-72
2022/11/26 15:43:36;;;;;;;;;;;;;;;;;;5026594;28;20442;-70
2022/11/26 15:46:01;;;;;;;;;;;;;;;;;;5026125;28;19921;-72
2022/11/26 15:48:27;;;;;;;;;;;;;;;;;;5027061;28;20439;-73
2022/11/26 15:50:53;;;;;;;;;;;;;;;;;;5026646;28;19921;-74
2022/11/26 15:53:19;;;;;;;;;;;;;;;;;;5027182;28;19920;-72
2022/11/26 15:55:45;;;;;;;;;;;;;;;;;;5026876;28;19952;-70
2022/11/26 15:58:11;;;;;;;;;;;;;;;;;;5026601;28;19909;-73
2022/11/26 16:00:37;;;;;;;;;;;;;;;;;;5026786;28;19913;-73
2022/11/26 16:03:03;;;;;;;;;;;;;;;;;;5024636;28;19913;-70
2022/11/26 16:05:29;;;;;;;;;;;;;;;;;;5026965;28;20043;-73
2022/11/26 16:07:55;;;;;;;;;;;;;;;;;;5026355;28;19909;-72
2022/11/26 16:10:21;;;;;;;;;;;;;;;;;;5026460;28;19913;-71
2022/11/26 16:12:47;;;;;;;;;;;;;;;;;;5026254;28;19921;-73
2022/11/26 16:15:13;;;;;;;;;;;;;;;;;;5027017;28;19944;-73
2022/11/26 16:17:39;;;;;;;;;;;;;;;;;;5027037;28;20302;-71
2022/11/26 16:20:04;;;;;;;;;;;;;;;;;;5026734;28;19909;-72
2022/11/26 16:22:30;;;;;;;;;;;;;;;;;;5026757;28;20417;-73
2022/11/26 16:24:56;;;;;;;;;;;;;;;;;;5025066;28;20433;-73
2022/11/26 16:27:22;;;;;;;;;;;;;;;;;;5023416;28;19917;-73
2022/11/26 16:29:48;;;;;;;;;;;;;;;;;;5025218;28;19945;-73
2022/11/26 16:32:14;;;;;;;;;;;;;;;;;;5025496;28;19925;-73
2022/11/26 16:34:40;;;;;;;;;;;;;;;;;;5025600;28;19913;-74
2022/11/26 16:37:06;;;;;;;;;;;;;;;;;;5024641;28;20004;-73